Terminal Aerodrome Forecast
Issued by NWS

Home | Current Version | Previous Version | Text Only | Print | Product List | Glossary On
Versions: 1 2 3 4 5 6 7 8 9 10 11 12 13 14 15 16 17 18 19 20 21 22 23
000
FTPQ31 PGUM 270528
TAFGUM
TAF

TAF
PTKK 270528Z 2706/2806 05011KT P6SM VCSH SCT012 SCT030 BKN120
     FM271500 04012G22KT 6SM SHRA SCT012 OVC030
     FM272300 03015G25KT 3SM RA VCTS SCT012CB OVC030=

USA.gov is the U.S. government's official web portal to all federal, state and local government web resources and services.